createdAt,value
2022-10-23T00:02:02.544Z,5.90
2022-10-23T00:04:31.171Z,5.88
2022-10-23T00:07:00.173Z,5.95
2022-10-23T00:09:28.809Z,6.20
2022-10-23T00:11:58.899Z,6.10
2022-10-23T00:14:27.439Z,5.95
2022-10-23T00:16:55.910Z,6.18
2022-10-23T00:19:24.930Z,5.90
2022-10-23T00:21:53.519Z,5.90
2022-10-23T00:24:22.259Z,5.22
2022-10-23T00:26:51.889Z,5.60
2022-10-23T00:29:21.873Z,5.85
2022-10-23T00:31:50.341Z,5.68
2022-10-23T00:34:19.659Z,5.78
2022-10-23T00:36:48.209Z,5.35
2022-10-23T00:39:16.719Z,5.35
2022-10-23T00:41:45.201Z,5.45
2022-10-23T00:44:51.909Z,5.45
2022-10-23T00:47:21.910Z,5.70
2022-10-23T00:49:50.470Z,5.57
2022-10-23T00:52:19.069Z,5.63
2022-10-23T00:54:47.591Z,5.40
2022-10-23T00:57:17.349Z,5.60
2022-10-23T00:59:46.069Z,5.00
2022-10-23T01:02:14.701Z,5.18
2022-10-23T01:04:44.879Z,5.45
2022-10-23T01:07:19.010Z,5.35
2022-10-23T01:09:56.031Z,4.88
2022-10-23T01:12:32.312Z,5.38
2022-10-23T01:15:07.724Z,4.68
2022-10-23T01:17:43.751Z,4.88
2022-10-23T01:20:27.049Z,5.35
2022-10-23T01:23:30.148Z,4.68
2022-10-23T01:26:07.649Z,5.30
2022-10-23T01:28:43.109Z,4.53
2022-10-23T01:31:17.690Z,4.70
2022-10-23T01:33:50.569Z,5.10
2022-10-23T01:36:22.290Z,5.32
2022-10-23T01:38:56.444Z,5.50
2022-10-23T01:41:31.049Z,5.03
2022-10-23T01:44:06.090Z,4.78
2022-10-23T01:46:37.724Z,4.63
2022-10-23T01:49:09.504Z,5.15
2022-10-23T01:51:42.284Z,4.72
2022-10-23T01:54:14.725Z,4.90
2022-10-23T01:56:46.084Z,4.47
2022-10-23T01:59:22.584Z,4.68
2022-10-23T02:01:54.966Z,4.70
2022-10-23T02:04:28.567Z,4.30
2022-10-23T02:06:57.044Z,4.72
2022-10-23T02:09:25.744Z,4.38
2022-10-23T02:11:59.305Z,4.38
2022-10-23T02:14:39.044Z,4.50
2022-10-23T02:17:16.785Z,4.80
2022-10-23T02:19:50.210Z,4.45
2022-10-23T02:22:23.544Z,4.25
2022-10-23T02:24:54.764Z,4.03
2022-10-23T02:27:28.344Z,4.40
2022-10-23T02:30:03.284Z,4.05
2022-10-23T02:32:32.009Z,4.10
2022-10-23T02:35:01.145Z,4.57
2022-10-23T02:37:29.767Z,4.50
2022-10-23T02:39:58.477Z,3.88
2022-10-23T02:42:35.344Z,4.53
2022-10-23T02:45:10.684Z,4.35
2022-10-23T02:47:53.145Z,4.20
2022-10-23T02:50:30.948Z,4.28
2022-10-23T02:53:06.594Z,4.32
2022-10-23T02:58:14.154Z,4.25
2022-10-23T03:00:47.904Z,4.20
2022-10-23T03:03:20.934Z,4.07
2022-10-23T03:05:49.554Z,4.05
2022-10-23T03:08:18.004Z,3.88
2022-10-23T03:10:46.494Z,4.00
2022-10-23T03:13:15.044Z,3.70
2022-10-23T03:15:45.230Z,4.20
2022-10-23T03:18:13.854Z,4.07
2022-10-23T03:20:42.425Z,3.90
2022-10-23T03:23:14.264Z,3.80
2022-10-23T03:25:42.825Z,3.92
2022-10-23T03:28:11.314Z,4.05
2022-10-23T03:30:39.784Z,4.05
2022-10-23T03:33:09.734Z,3.90
2022-10-23T03:35:38.238Z,3.88
2022-10-23T03:38:06.764Z,3.65
2022-10-23T03:40:35.344Z,3.70
2022-10-23T03:43:03.804Z,3.60
2022-10-23T03:45:32.844Z,3.90
2022-10-23T03:48:01.465Z,3.42
2022-10-23T03:50:31.324Z,3.50
2022-10-23T03:52:59.785Z,3.40
2022-10-23T03:55:28.503Z,3.80
2022-10-23T03:57:57.034Z,3.30
2022-10-23T04:00:25.565Z,3.67
2022-10-23T04:02:54.045Z,3.50
2022-10-23T04:05:22.564Z,3.85
2022-10-23T04:07:52.504Z,3.63
2022-10-23T04:10:21.204Z,3.67
2022-10-23T04:12:49.664Z,3.92
2022-10-23T04:15:18.248Z,3.50
2022-10-23T04:17:46.831Z,3.60
2022-10-23T04:20:15.395Z,3.65
2022-10-23T04:22:44.105Z,3.35
2022-10-23T04:25:14.775Z,3.60
2022-10-23T04:27:43.358Z,3.40
2022-10-23T04:30:13.265Z,3.22
2022-10-23T04:32:41.944Z,3.58
2022-10-23T04:35:10.824Z,3.42
2022-10-23T04:37:39.514Z,3.42
2022-10-23T04:40:09.484Z,3.60
2022-10-23T04:42:39.544Z,3.53
2022-10-23T04:45:09.378Z,3.40
2022-10-23T04:47:37.904Z,3.67
2022-10-23T04:50:07.496Z,3.03
2022-10-23T04:52:35.984Z,3.45
2022-10-23T04:55:04.654Z,3.45
2022-10-23T04:57:33.184Z,3.45
2022-10-23T05:00:03.405Z,3.20
2022-10-23T05:02:31.924Z,3.33
2022-10-23T05:05:00.382Z,3.17
2022-10-23T05:07:28.846Z,3.10
2022-10-23T05:09:57.337Z,3.13
2022-10-23T05:12:26.859Z,3.13
2022-10-23T05:14:55.714Z,3.20
2022-10-23T05:17:30.018Z,3.40
2022-10-23T05:20:01.557Z,3.08
2022-10-23T05:22:34.296Z,3.40
2022-10-23T05:25:03.136Z,3.10
2022-10-23T05:27:31.665Z,3.55
2022-10-23T05:30:00.245Z,3.33
2022-10-23T05:32:33.245Z,3.40
2022-10-23T05:35:04.367Z,3.10
2022-10-23T05:37:33.136Z,3.13
2022-10-23T05:40:01.694Z,3.38
2022-10-23T05:42:30.284Z,3.00
2022-10-23T05:44:58.725Z,3.10
2022-10-23T05:47:27.184Z,3.30
2022-10-23T05:49:57.184Z,3.10
2022-10-23T05:52:25.805Z,3.05
2022-10-23T05:54:54.355Z,3.15
2022-10-23T05:57:22.870Z,3.17
2022-10-23T05:59:51.354Z,2.95
2022-10-23T06:02:19.917Z,3.40
2022-10-23T06:04:48.484Z,2.95
2022-10-23T06:07:18.425Z,3.20
2022-10-23T06:09:46.834Z,2.90
2022-10-23T06:12:15.375Z,3.05
2022-10-23T06:14:43.845Z,2.95
2022-10-23T06:17:12.345Z,3.00
2022-10-23T06:19:40.895Z,2.90
2022-10-23T06:22:09.491Z,3.10
2022-10-23T06:24:39.474Z,3.30
2022-10-23T06:27:07.985Z,3.00
2022-10-23T06:29:36.484Z,2.97
2022-10-23T06:32:05.136Z,2.67
2022-10-23T06:34:33.856Z,3.08
2022-10-23T06:37:02.365Z,3.05
2022-10-23T06:39:32.174Z,2.90
2022-10-23T06:42:02.425Z,3.00
2022-10-23T06:44:30.904Z,3.25
2022-10-23T06:47:00.867Z,3.05
2022-10-23T06:49:29.367Z,2.80
2022-10-23T06:51:57.784Z,3.13
2022-10-23T06:54:26.325Z,2.90
2022-10-23T06:56:54.865Z,2.97
2022-10-23T06:59:24.919Z,2.88
2022-10-23T07:04:26.924Z,2.92
2022-10-23T07:06:57.447Z,3.05
2022-10-23T07:09:25.944Z,2.83
2022-10-23T07:11:54.467Z,2.90
2022-10-23T07:14:22.895Z,3.00
2022-10-23T07:16:52.765Z,2.72
2022-10-23T07:19:21.294Z,2.95
2022-10-23T07:21:49.835Z,3.30
2022-10-23T07:24:18.696Z,3.00
2022-10-23T07:26:47.235Z,3.05
2022-10-23T07:29:15.764Z,3.00
2022-10-23T07:31:44.214Z,2.95
2022-10-23T07:34:14.246Z,2.80
2022-10-23T07:36:42.764Z,2.72
2022-10-23T07:39:12.094Z,2.70
2022-10-23T07:41:40.604Z,2.80
2022-10-23T07:44:09.088Z,2.88
2022-10-23T07:46:37.554Z,2.67
2022-10-23T07:49:06.074Z,2.60
2022-10-23T07:51:36.004Z,2.80
2022-10-23T07:54:04.585Z,2.90
2022-10-23T07:56:33.126Z,2.55
2022-10-23T07:59:01.565Z,2.70
2022-10-23T08:01:34.785Z,2.85
2022-10-23T08:04:03.564Z,3.00
2022-10-23T08:06:32.349Z,2.75
2022-10-23T08:09:05.489Z,2.53
2022-10-23T08:11:36.614Z,2.80
2022-10-23T08:14:06.714Z,2.50
2022-10-23T08:16:37.488Z,2.60
2022-10-23T08:19:06.975Z,2.75
2022-10-23T08:21:35.525Z,2.60
2022-10-23T08:24:06.186Z,2.45
2022-10-23T08:26:34.645Z,2.60
2022-10-23T08:29:03.245Z,2.45
2022-10-23T08:31:31.765Z,2.60
2022-10-23T08:34:00.646Z,2.45
2022-10-23T08:36:30.544Z,2.30
2022-10-23T08:38:59.690Z,2.30
2022-10-23T08:41:34.045Z,2.50
2022-10-23T08:44:09.914Z,2.50
2022-10-23T08:46:43.484Z,2.60
2022-10-23T08:49:26.465Z,2.63
2022-10-23T08:51:58.826Z,3.30
2022-10-23T08:54:32.974Z,2.80
2022-10-23T08:57:11.835Z,2.67
2022-10-23T08:59:45.535Z,2.53
2022-10-23T09:02:19.501Z,2.58
2022-10-23T09:04:51.094Z,2.60
2022-10-23T09:07:29.925Z,2.60
2022-10-23T09:10:08.959Z,2.95
2022-10-23T09:12:39.795Z,10.48
2022-10-23T09:15:25.644Z,30.08
2022-10-23T09:18:00.346Z,33.42
2022-10-23T09:20:34.325Z,29.70
2022-10-23T09:23:05.726Z,34.03
2022-10-23T09:25:39.391Z,34.05
2022-10-23T09:28:20.375Z,36.97
2022-10-23T09:30:50.274Z,35.10
2022-10-23T09:33:21.928Z,37.45
2022-10-23T09:35:55.685Z,35.08
2022-10-23T09:38:30.119Z,36.33
2022-10-23T09:41:01.525Z,36.15
2022-10-23T09:43:31.585Z,36.33
2022-10-23T09:46:01.754Z,36.10
2022-10-23T09:48:30.505Z,35.33
2022-10-23T09:51:00.585Z,34.63
2022-10-23T09:53:33.904Z,35.67
2022-10-23T09:56:04.544Z,34.38
2022-10-23T09:58:40.177Z,34.78
2022-10-23T10:03:39.064Z,34.65
2022-10-23T10:06:07.965Z,32.55
2022-10-23T10:08:42.514Z,32.40
2022-10-23T10:11:17.426Z,31.20
2022-10-23T10:14:08.625Z,31.05
2022-10-23T10:16:48.434Z,32.80
2022-10-23T10:19:38.025Z,29.77
2022-10-23T10:22:18.285Z,28.70
2022-10-23T10:24:55.127Z,29.70
2022-10-23T10:27:41.045Z,28.00
2022-10-23T10:32:51.406Z,28.05
2022-10-23T10:35:38.716Z,29.00
2022-10-23T10:38:48.525Z,27.60
2022-10-23T10:41:42.256Z,26.63
2022-10-23T10:44:47.924Z,26.13
2022-10-23T10:47:24.510Z,24.75
2022-10-23T10:50:07.722Z,25.90
2022-10-23T10:52:48.278Z,26.17
2022-10-23T10:55:24.190Z,26.00
2022-10-23T10:58:00.068Z,25.27
2022-10-23T11:00:31.449Z,25.40
2022-10-23T11:03:04.919Z,23.92
2022-10-23T11:05:37.449Z,23.30
2022-10-23T11:08:11.513Z,23.65
2022-10-23T11:10:42.719Z,23.65
2022-10-23T11:13:24.820Z,22.80
2022-10-23T11:15:56.071Z,22.60
2022-10-23T11:18:29.849Z,23.20
2022-10-23T11:21:13.879Z,20.65
2022-10-23T11:24:13.614Z,20.65
2022-10-23T11:26:56.980Z,22.30
2022-10-23T11:30:12.143Z,19.40
2022-10-23T11:33:14.401Z,19.90
2022-10-23T11:36:08.159Z,19.38
2022-10-23T11:38:38.949Z,16.80
2022-10-23T11:42:04.742Z,17.85
2022-10-23T11:44:47.120Z,17.25
2022-10-23T11:47:39.713Z,16.73
2022-10-23T11:50:26.578Z,16.02
2022-10-23T11:53:13.909Z,15.35
2022-10-23T11:56:02.055Z,16.20
2022-10-23T11:58:47.271Z,15.48
2022-10-23T12:01:31.651Z,15.15
2022-10-23T12:04:05.470Z,15.63
2022-10-23T12:06:43.630Z,15.05
2022-10-23T12:09:28.020Z,13.75
2022-10-23T12:12:20.280Z,13.88
2022-10-23T12:14:54.064Z,12.90
2022-10-23T12:17:36.571Z,12.48
2022-10-23T12:20:26.320Z,12.88
2022-10-23T12:23:16.090Z,12.00
2022-10-23T12:25:59.089Z,12.07
2022-10-23T12:28:36.401Z,12.13
2022-10-23T12:31:20.420Z,14.25
2022-10-23T12:33:59.320Z,12.40
2022-10-23T12:36:52.750Z,12.43
2022-10-23T12:39:29.346Z,11.73
2022-10-23T12:42:00.733Z,11.13
2022-10-23T12:44:30.659Z,9.98
2022-10-23T12:47:03.230Z,11.18
2022-10-23T12:49:34.899Z,10.82
2022-10-23T12:52:09.600Z,10.80
2022-10-23T12:54:41.804Z,10.30
2022-10-23T12:57:24.789Z,10.88
2022-10-23T12:59:59.535Z,9.38
2022-10-23T13:02:30.466Z,9.73
2022-10-23T13:05:08.522Z,9.80
2022-10-23T13:07:44.425Z,9.77
2022-10-23T13:10:17.889Z,9.15
2022-10-23T13:12:55.115Z,9.20
2022-10-23T13:15:45.779Z,8.73
2022-10-23T13:18:28.791Z,8.25
2022-10-23T13:21:03.822Z,7.35
2022-10-23T13:23:41.874Z,8.25
2022-10-23T13:26:36.229Z,7.90
2022-10-23T13:29:26.792Z,7.35
2022-10-23T13:31:55.590Z,8.02
2022-10-23T13:34:30.451Z,7.65
2022-10-23T13:37:04.370Z,7.50
2022-10-23T13:39:35.132Z,7.47
2022-10-23T13:42:18.240Z,7.65
2022-10-23T13:44:54.501Z,7.10
2022-10-23T13:47:26.400Z,7.95
2022-10-23T13:49:55.970Z,7.25
2022-10-23T13:52:24.879Z,7.13
2022-10-23T13:55:00.612Z,7.63
2022-10-23T13:57:30.473Z,7.80
2022-10-23T14:00:10.429Z,7.25
2022-10-23T14:02:40.962Z,7.22
2022-10-23T14:05:11.340Z,7.22
2022-10-23T14:07:44.275Z,7.40
2022-10-23T14:10:17.049Z,7.32
2022-10-23T14:12:54.011Z,7.60
2022-10-23T14:15:25.830Z,6.57
2022-10-23T14:17:59.642Z,7.07
2022-10-23T14:20:31.725Z,7.40
2022-10-23T14:23:03.050Z,7.55
2022-10-23T14:25:34.660Z,7.32
2022-10-23T14:28:06.816Z,6.72
2022-10-23T14:30:42.329Z,6.57
2022-10-23T14:33:14.241Z,7.18
2022-10-23T14:35:45.329Z,7.25
2022-10-23T14:38:15.132Z,6.50
2022-10-23T14:40:44.841Z,6.35
2022-10-23T14:43:14.370Z,6.82
2022-10-23T14:45:45.492Z,6.70
2022-10-23T14:48:14.559Z,7.18
2022-10-23T14:50:46.681Z,6.72
2022-10-23T14:53:15.847Z,6.35
2022-10-23T14:55:44.302Z,6.32
2022-10-23T14:58:12.785Z,6.50
2022-10-23T15:00:41.259Z,6.00
2022-10-23T15:03:11.150Z,6.53
2022-10-23T15:05:43.334Z,6.30
2022-10-23T15:08:11.812Z,6.72
2022-10-23T15:10:40.499Z,6.20
2022-10-23T15:13:09.130Z,6.47
2022-10-23T15:15:37.670Z,6.20
2022-10-23T15:18:06.350Z,6.65
2022-10-23T15:20:36.460Z,6.75
2022-10-23T15:23:04.995Z,6.60
2022-10-23T15:25:33.535Z,5.97
2022-10-23T15:28:02.074Z,5.85
2022-10-23T15:30:30.550Z,5.63
2022-10-23T15:32:59.160Z,5.68
2022-10-23T15:37:58.629Z,5.60
2022-10-23T15:40:27.093Z,6.28
2022-10-23T15:42:55.609Z,5.60
2022-10-23T15:45:26.571Z,5.20
2022-10-23T15:47:57.580Z,5.38
2022-10-23T15:50:26.351Z,5.63
2022-10-23T15:52:54.860Z,5.25
2022-10-23T15:55:25.170Z,5.75
2022-10-23T15:57:53.720Z,5.88
2022-10-23T16:00:22.450Z,5.35
2022-10-23T16:02:51.009Z,5.57
2022-10-23T16:05:19.581Z,5.10
2022-10-23T16:07:47.983Z,5.55
2022-10-23T16:10:17.180Z,5.40
2022-10-23T16:12:47.101Z,5.20
2022-10-23T16:15:15.639Z,5.03
2022-10-23T16:17:44.240Z,5.00
2022-10-23T16:20:13.391Z,4.60
2022-10-23T16:22:44.848Z,4.00
2022-10-23T16:25:13.751Z,4.00
2022-10-23T16:27:42.587Z,3.58
2022-10-23T16:30:14.529Z,4.10
2022-10-23T16:32:43.151Z,5.25
2022-10-23T16:35:13.094Z,4.30
2022-10-23T16:37:42.006Z,4.53
2022-10-23T16:40:12.021Z,4.47
2022-10-23T16:42:42.173Z,3.95
2022-10-23T16:45:13.360Z,4.05
2022-10-23T16:47:42.166Z,4.00
2022-10-23T16:50:10.890Z,4.22
2022-10-23T16:52:39.912Z,4.30
2022-10-23T16:55:09.900Z,3.88
2022-10-23T16:57:38.600Z,4.13
2022-10-23T17:00:08.720Z,4.15
2022-10-23T17:02:39.374Z,4.13
2022-10-23T17:05:08.563Z,4.05
2022-10-23T17:07:37.385Z,3.90
2022-10-23T17:10:06.780Z,4.25
2022-10-23T17:12:35.370Z,4.07
2022-10-23T17:15:03.932Z,4.00
2022-10-23T17:17:32.480Z,4.05
2022-10-23T17:20:02.480Z,3.95
2022-10-23T17:22:31.180Z,3.80
2022-10-23T17:25:00.310Z,4.13
2022-10-23T17:27:29.009Z,3.92
2022-10-23T17:29:58.346Z,4.30
2022-10-23T17:32:27.362Z,3.92
2022-10-23T17:34:56.249Z,3.92
2022-10-23T17:37:26.346Z,3.67
2022-10-23T17:39:56.381Z,4.25
2022-10-23T17:42:26.609Z,4.18
2022-10-23T17:44:55.421Z,4.88
2022-10-23T17:47:23.998Z,5.15
2022-10-23T17:49:52.829Z,6.55
2022-10-23T17:52:21.460Z,5.97
2022-10-23T17:54:54.569Z,8.10
2022-10-23T17:59:56.391Z,7.85
2022-10-23T18:02:25.133Z,9.13
2022-10-23T18:04:54.009Z,8.80
2022-10-23T18:07:24.449Z,8.80
2022-10-23T18:09:54.452Z,9.05
2022-10-23T18:12:23.891Z,9.00
2022-10-23T18:14:52.749Z,8.20
2022-10-23T18:17:21.339Z,8.25
2022-10-23T18:19:51.820Z,8.48
2022-10-23T18:22:20.372Z,9.23
2022-10-23T18:24:51.345Z,8.73
2022-10-23T18:27:21.464Z,9.13
2022-10-23T18:29:53.624Z,8.07
2022-10-23T18:32:23.965Z,9.43
2022-10-23T18:34:53.199Z,8.30
2022-10-23T18:37:41.269Z,8.00
2022-10-23T18:40:13.840Z,8.73
2022-10-23T18:42:44.489Z,8.57
2022-10-23T18:45:15.814Z,7.65
2022-10-23T18:47:44.847Z,7.13
2022-10-23T18:50:14.192Z,8.68
2022-10-23T18:52:42.860Z,8.48
2022-10-23T18:55:15.475Z,8.25
2022-10-23T18:57:46.267Z,7.63
2022-10-23T19:00:22.737Z,7.22
2022-10-23T19:02:54.916Z,8.07
2022-10-23T19:05:24.815Z,7.22
2022-10-23T19:07:57.011Z,7.43
2022-10-23T19:10:32.878Z,7.32
2022-10-23T19:13:05.509Z,7.25
2022-10-23T19:15:37.684Z,8.05
2022-10-23T19:18:11.575Z,7.22
2022-10-23T19:20:44.501Z,7.20
2022-10-23T19:23:15.984Z,7.78
2022-10-23T19:25:49.245Z,7.90
2022-10-23T19:28:20.860Z,8.05
2022-10-23T19:30:50.655Z,7.07
2022-10-23T19:33:21.649Z,7.07
2022-10-23T19:35:52.300Z,6.85
2022-10-23T19:38:21.360Z,6.78
2022-10-23T19:40:50.470Z,6.65
2022-10-23T19:43:31.754Z,6.80
2022-10-23T19:46:18.665Z,6.45
2022-10-23T19:48:48.115Z,6.57
2022-10-23T19:51:17.325Z,7.55
2022-10-23T19:53:45.918Z,6.60
2022-10-23T19:56:14.844Z,6.50
2022-10-23T19:58:44.645Z,6.03
2022-10-23T20:01:15.420Z,6.47
2022-10-23T20:03:45.564Z,7.10
2022-10-23T20:06:15.584Z,5.95
2022-10-23T20:08:44.355Z,6.57
2022-10-23T20:11:20.387Z,6.95
2022-10-23T20:13:51.164Z,6.20
2022-10-23T20:16:20.735Z,6.20
2022-10-23T20:18:50.035Z,27.55
2022-10-23T20:21:19.097Z,18.48
2022-10-23T20:23:48.490Z,21.85
2022-10-23T20:26:22.004Z,15.40
2022-10-23T20:28:54.174Z,16.08
2022-10-23T20:31:24.054Z,13.48
2022-10-23T20:33:54.705Z,14.55
2022-10-23T20:36:27.404Z,13.65
2022-10-23T20:38:57.900Z,14.73
2022-10-23T20:41:29.090Z,12.57
2022-10-23T20:43:58.964Z,12.48
2022-10-23T20:46:28.514Z,12.10
2022-10-23T20:48:56.985Z,11.82
2022-10-23T20:51:27.304Z,10.95
2022-10-23T20:53:56.234Z,10.88
2022-10-23T20:56:31.462Z,11.50
2022-10-23T20:59:04.904Z,10.27
2022-10-23T21:01:34.435Z,10.70
2022-10-23T21:04:04.666Z,10.23
2022-10-23T21:06:51.974Z,10.20
2022-10-23T21:09:26.365Z,10.35
2022-10-23T21:11:54.865Z,10.95
2022-10-23T21:14:25.039Z,11.10
2022-10-23T21:16:53.475Z,10.57
2022-10-23T21:19:22.235Z,11.13
2022-10-23T21:21:50.726Z,10.43
2022-10-23T21:24:19.277Z,10.10
2022-10-23T21:26:48.777Z,10.20
2022-10-23T21:29:22.588Z,9.15
2022-10-23T21:31:59.975Z,9.38
2022-10-23T21:34:29.604Z,9.20
2022-10-23T21:37:14.639Z,9.32
2022-10-23T21:39:43.981Z,8.52
2022-10-23T21:42:13.236Z,9.50
2022-10-23T21:44:41.815Z,9.55
2022-10-23T21:47:11.986Z,9.23
2022-10-23T21:49:40.478Z,9.23
2022-10-23T21:52:09.026Z,8.45
2022-10-23T21:54:37.655Z,9.00
2022-10-23T21:57:06.165Z,8.35
2022-10-23T21:59:36.057Z,9.35
2022-10-23T22:02:05.503Z,8.70
2022-10-23T22:04:35.845Z,8.63
2022-10-23T22:07:04.258Z,7.65
2022-10-23T22:09:33.953Z,7.68
2022-10-23T22:12:02.864Z,8.63
2022-10-23T22:14:34.104Z,8.20
2022-10-23T22:17:02.515Z,8.05
2022-10-23T22:19:31.596Z,8.38
2022-10-23T22:22:01.907Z,8.82
2022-10-23T22:24:30.794Z,7.80
2022-10-23T22:26:59.305Z,7.65
2022-10-23T22:29:29.924Z,7.57
2022-10-23T22:31:59.425Z,7.53
2022-10-23T22:37:19.805Z,7.50
2022-10-23T22:39:51.175Z,7.72
2022-10-23T22:42:20.195Z,6.97
2022-10-23T22:44:49.326Z,7.10
2022-10-23T22:47:17.756Z,6.55
2022-10-23T22:49:46.404Z,6.70
2022-10-23T22:52:15.056Z,7.18
2022-10-23T22:54:45.115Z,7.30
2022-10-23T22:57:13.591Z,7.15
2022-10-23T22:59:44.565Z,7.00
2022-10-23T23:02:15.965Z,6.70
2022-10-23T23:04:44.454Z,6.97
2022-10-23T23:07:14.566Z,6.57
2022-10-23T23:09:46.475Z,6.60
2022-10-23T23:12:15.844Z,6.82
2022-10-23T23:14:44.685Z,6.43
2022-10-23T23:17:14.164Z,6.90
2022-10-23T23:19:42.687Z,6.88
2022-10-23T23:22:11.314Z,7.47
2022-10-23T23:24:40.225Z,6.88
2022-10-23T23:27:10.505Z,7.00
2022-10-23T23:29:42.044Z,7.15
2022-10-23T23:32:13.826Z,7.78
2022-10-23T23:34:45.225Z,8.70
2022-10-23T23:37:14.155Z,8.52
2022-10-23T23:39:44.275Z,8.65
2022-10-23T23:42:17.164Z,7.97
2022-10-23T23:45:02.472Z,8.60
2022-10-23T23:47:46.421Z,8.20
2022-10-23T23:50:17.404Z,8.32
2022-10-23T23:52:47.244Z,8.23
2022-10-23T23:55:38.651Z,8.70
2022-10-23T23:58:12.034Z,8.32
